Elizabethtown, Ohio
Current Conditions -  °F | °C
As of 7:52 PM on Tuesday 25 Nov 2014 (Local Time) from KCVG Reporting Station
Overcast Overcast  
Wind Chill: 28°   Ceiling: 20000
Heat Index: 35°   Visibility: 10mi
Dew Point: 26°   Wind: 9mph
Humidity: 70%   Direction: 360°N
Pressure: 30.14"   Gusts: NA
Location:  39.145°N, 84.7527°W
Report Text: KCVG 260052Z 36008KT 10SM OVC200 02/M03 A3014 RMK AO2 SLP212 T00171033
Loading
Personal Weather Stations






























Interactive Weather Map New forecast layout! Learn more

10-Day Weather Forecast

Advertisements
Track Severe Weather on mobile